createdAt,value
2023-02-09T00:01:19.194Z,10.93
2023-02-09T00:03:46.611Z,13.70
2023-02-09T00:06:17.857Z,11.57
2023-02-09T00:08:44.868Z,12.73
2023-02-09T00:11:18.446Z,12.30
2023-02-09T00:13:45.423Z,13.20
2023-02-09T00:16:12.378Z,11.93
2023-02-09T00:18:39.351Z,10.03
2023-02-09T00:21:10.677Z,10.40
2023-02-09T00:23:41.003Z,13.43
2023-02-09T00:26:11.267Z,10.10
2023-02-09T00:28:39.156Z,7.77
2023-02-09T00:31:08.721Z,9.83
2023-02-09T00:33:36.291Z,11.00
2023-02-09T00:36:07.648Z,15.50
2023-02-09T00:38:35.535Z,11.90
2023-02-09T00:41:03.194Z,14.37
2023-02-09T00:43:30.135Z,13.70
2023-02-09T00:45:57.129Z,13.17
2023-02-09T00:48:24.188Z,10.20
2023-02-09T00:50:52.372Z,12.20
2023-02-09T00:53:20.437Z,16.07
2023-02-09T00:55:47.710Z,12.00
2023-02-09T00:58:14.718Z,15.10
2023-02-09T01:00:41.665Z,12.80
2023-02-09T01:03:09.195Z,13.37
2023-02-09T01:05:40.271Z,13.80
2023-02-09T01:08:07.513Z,13.20
2023-02-09T01:10:34.764Z,13.80
2023-02-09T01:13:01.742Z,12.30
2023-02-09T01:15:29.679Z,13.83
2023-02-09T01:17:58.030Z,12.57
2023-02-09T01:20:26.204Z,12.60
2023-02-09T01:22:53.175Z,12.07
2023-02-09T01:25:20.114Z,14.10
2023-02-09T01:27:46.999Z,11.57
2023-02-09T01:30:14.817Z,9.67
2023-02-09T01:32:41.759Z,10.87
2023-02-09T01:35:09.132Z,12.17
2023-02-09T01:37:38.012Z,10.57
2023-02-09T01:40:06.636Z,11.93
2023-02-09T01:42:35.208Z,11.03
2023-02-09T01:45:15.971Z,9.80
2023-02-09T01:47:47.317Z,9.77
2023-02-09T01:50:15.721Z,9.10
2023-02-09T01:52:44.737Z,7.63
2023-02-09T01:55:15.027Z,9.13
2023-02-09T01:57:53.214Z,7.83
2023-02-09T02:00:21.361Z,9.57
2023-02-09T02:02:56.161Z,9.67
2023-02-09T02:05:25.122Z,8.43
2023-02-09T02:08:07.826Z,10.00
2023-02-09T02:10:35.108Z,8.17
2023-02-09T02:13:03.140Z,9.87
2023-02-09T02:15:37.173Z,8.83
2023-02-09T02:18:20.294Z,9.60
2023-02-09T02:21:14.012Z,8.63
2023-02-09T02:24:05.792Z,9.57
2023-02-09T02:27:02.050Z,10.17
2023-02-09T02:30:02.994Z,8.67
2023-02-09T02:33:14.787Z,11.67
2023-02-09T02:35:53.856Z,10.30
2023-02-09T02:38:49.512Z,13.20
2023-02-09T02:41:20.550Z,10.50
2023-02-09T02:44:03.140Z,10.83
2023-02-09T02:46:41.970Z,9.13
2023-02-09T02:49:31.450Z,9.27
2023-02-09T02:52:04.066Z,7.17
2023-02-09T02:54:35.261Z,9.57
2023-02-09T02:57:11.664Z,10.00
2023-02-09T02:59:44.443Z,7.90
2023-02-09T03:02:20.155Z,10.67
2023-02-09T03:04:50.563Z,7.53
2023-02-09T03:07:18.423Z,7.90
2023-02-09T03:09:52.790Z,6.60
2023-02-09T03:12:52.138Z,7.13
2023-02-09T03:15:33.137Z,5.70
2023-02-09T03:18:26.622Z,7.50
2023-02-09T03:21:15.940Z,6.90
2023-02-09T03:23:54.456Z,7.60
2023-02-09T03:26:27.654Z,8.27
2023-02-09T03:28:57.897Z,5.90
2023-02-09T03:31:25.491Z,7.23
2023-02-09T03:33:52.531Z,8.73
2023-02-09T03:36:20.609Z,7.80
2023-02-09T03:38:47.557Z,8.03
2023-02-09T03:41:14.409Z,10.53
2023-02-09T03:43:59.882Z,9.07
2023-02-09T03:46:26.778Z,9.03
2023-02-09T03:48:53.718Z,7.73
2023-02-09T03:51:20.605Z,6.60
2023-02-09T03:53:47.458Z,7.47
2023-02-09T03:56:14.367Z,5.43
2023-02-09T03:58:41.284Z,9.20
2023-02-09T04:01:10.626Z,7.20
2023-02-09T04:03:39.874Z,9.10
2023-02-09T04:06:06.917Z,6.70
2023-02-09T04:08:33.805Z,8.93
2023-02-09T04:11:00.705Z,7.47
2023-02-09T04:13:27.791Z,7.90
2023-02-09T04:15:54.717Z,6.70
2023-02-09T04:18:21.612Z,6.80
2023-02-09T04:20:48.578Z,6.63
2023-02-09T04:23:15.579Z,6.93
2023-02-09T04:25:42.815Z,9.57
2023-02-09T04:28:09.760Z,12.20
2023-02-09T04:30:36.779Z,15.80
2023-02-09T04:33:03.866Z,13.50
2023-02-09T04:35:30.925Z,13.17
2023-02-09T04:37:57.749Z,11.87
2023-02-09T04:40:24.590Z,10.00
2023-02-09T04:42:51.428Z,9.50
2023-02-09T04:45:18.408Z,9.37
2023-02-09T04:47:45.287Z,8.30
2023-02-09T04:50:12.127Z,10.20
2023-02-09T04:52:39.030Z,8.30
2023-02-09T04:55:06.075Z,12.00
2023-02-09T04:57:51.571Z,10.07
2023-02-09T05:00:18.619Z,9.63
2023-02-09T05:02:45.427Z,8.63
2023-02-09T05:05:12.257Z,7.17
2023-02-09T05:07:39.147Z,9.10
2023-02-09T05:10:06.499Z,9.53
2023-02-09T05:12:33.340Z,7.17
2023-02-09T05:15:00.236Z,9.07
2023-02-09T05:17:27.118Z,10.17
2023-02-09T05:19:54.009Z,12.23
2023-02-09T05:22:20.878Z,13.40
2023-02-09T05:24:47.704Z,17.87
2023-02-09T05:27:14.678Z,19.87
2023-02-09T05:29:41.525Z,18.00
2023-02-09T05:32:08.636Z,16.40
2023-02-09T05:34:35.612Z,15.30
2023-02-09T05:37:02.449Z,15.13
2023-02-09T05:39:29.327Z,15.43
2023-02-09T05:42:14.882Z,13.17
2023-02-09T05:44:47.347Z,11.07
2023-02-09T05:47:17.328Z,12.00
2023-02-09T05:49:44.407Z,10.60
2023-02-09T05:52:12.236Z,12.97
2023-02-09T05:54:39.207Z,14.17
2023-02-09T05:57:06.697Z,9.80
2023-02-09T05:59:33.552Z,9.60
2023-02-09T06:02:00.787Z,9.53
2023-02-09T06:04:28.556Z,9.37
2023-02-09T06:06:55.785Z,8.67
2023-02-09T06:09:22.959Z,12.33
2023-02-09T06:11:49.912Z,9.43
2023-02-09T06:14:17.748Z,9.93
2023-02-09T06:16:44.843Z,9.23
2023-02-09T06:19:17.364Z,8.83
2023-02-09T06:21:44.919Z,8.75
2023-02-09T06:24:13.158Z,9.23
2023-02-09T06:26:40.960Z,9.17
2023-02-09T06:29:08.112Z,12.47
2023-02-09T06:31:35.488Z,12.70
2023-02-09T06:34:02.538Z,11.13
2023-02-09T06:36:29.390Z,10.57
2023-02-09T06:38:56.276Z,11.80
2023-02-09T06:41:23.115Z,8.40
2023-02-09T06:43:49.977Z,10.97
2023-02-09T06:46:17.037Z,12.23
2023-02-09T06:48:43.927Z,13.40
2023-02-09T06:51:13.318Z,10.97
2023-02-09T06:53:41.170Z,9.85
2023-02-09T06:56:08.735Z,12.43
2023-02-09T06:58:36.904Z,10.00
2023-02-09T07:01:05.737Z,11.80
2023-02-09T07:03:32.831Z,10.23
2023-02-09T07:06:07.918Z,11.00
2023-02-09T07:08:35.377Z,9.40
2023-02-09T07:11:08.776Z,10.80
2023-02-09T07:13:36.195Z,9.90
2023-02-09T07:16:07.630Z,9.30
2023-02-09T07:18:34.967Z,12.80
2023-02-09T07:21:18.400Z,11.23
2023-02-09T07:23:46.070Z,12.10
2023-02-09T07:26:15.390Z,10.50
2023-02-09T07:28:42.336Z,12.17
2023-02-09T07:31:12.440Z,10.67
2023-02-09T07:33:39.488Z,9.13
2023-02-09T07:36:08.562Z,13.17
2023-02-09T07:38:35.827Z,10.68
2023-02-09T07:41:04.592Z,9.70
2023-02-09T07:43:32.098Z,9.60
2023-02-09T07:46:07.083Z,9.10
2023-02-09T07:48:35.081Z,10.37
2023-02-09T07:51:02.812Z,9.77
2023-02-09T07:53:30.158Z,10.07
2023-02-09T07:55:57.411Z,11.00
2023-02-09T07:58:24.472Z,10.93
2023-02-09T08:00:51.685Z,13.00
2023-02-09T08:03:23.874Z,11.77
2023-02-09T08:06:10.279Z,11.27
2023-02-09T08:08:37.115Z,11.23
2023-02-09T08:11:05.609Z,13.90
2023-02-09T08:13:38.057Z,14.63
2023-02-09T08:16:09.885Z,16.60
2023-02-09T08:18:44.839Z,15.70
2023-02-09T08:21:14.919Z,14.20
2023-02-09T08:23:43.475Z,15.73
2023-02-09T08:26:13.160Z,13.60
2023-02-09T08:28:45.540Z,14.97
2023-02-09T08:31:15.495Z,12.43
2023-02-09T08:33:43.647Z,12.70
2023-02-09T08:36:11.827Z,17.30
2023-02-09T08:38:39.036Z,11.20
2023-02-09T08:41:07.423Z,12.97
2023-02-09T08:43:34.677Z,18.03
2023-02-09T08:46:13.297Z,13.90
2023-02-09T08:48:43.557Z,12.03
2023-02-09T08:51:12.539Z,12.47
2023-02-09T08:53:39.808Z,14.17
2023-02-09T08:56:06.986Z,12.87
2023-02-09T08:58:33.904Z,15.20
2023-02-09T09:01:01.129Z,12.50
2023-02-09T09:03:31.578Z,13.10
2023-02-09T09:06:04.368Z,12.43
2023-02-09T09:08:32.445Z,12.87
2023-02-09T09:10:59.455Z,13.50
2023-02-09T09:13:27.328Z,14.10
2023-02-09T09:15:57.586Z,12.67
2023-02-09T09:18:25.900Z,13.53
2023-02-09T09:20:53.233Z,14.83
2023-02-09T09:23:21.298Z,13.77
2023-02-09T09:25:48.707Z,15.13
2023-02-09T09:28:16.223Z,13.50
2023-02-09T09:30:43.337Z,15.13
2023-02-09T09:33:10.211Z,14.10
2023-02-09T09:35:37.110Z,13.43
2023-02-09T09:38:04.765Z,15.17
2023-02-09T09:40:37.416Z,18.07
2023-02-09T09:43:28.380Z,17.03
2023-02-09T09:45:55.399Z,16.53
2023-02-09T09:48:25.827Z,14.47
2023-02-09T09:50:59.820Z,16.73
2023-02-09T09:53:33.422Z,13.70
2023-02-09T09:56:07.915Z,17.00
2023-02-09T09:58:39.107Z,16.07
2023-02-09T10:01:06.827Z,17.13
2023-02-09T10:03:33.763Z,13.80
2023-02-09T10:06:11.526Z,15.70
2023-02-09T10:08:51.024Z,13.90
2023-02-09T10:11:23.922Z,16.30
2023-02-09T10:13:53.307Z,14.73
2023-02-09T10:16:20.237Z,17.33
2023-02-09T10:18:55.525Z,16.93
2023-02-09T10:21:24.838Z,15.20
2023-02-09T10:24:10.127Z,17.80
2023-02-09T10:26:40.073Z,17.53
2023-02-09T10:29:13.201Z,16.13
2023-02-09T10:31:48.209Z,17.07
2023-02-09T10:34:31.387Z,19.23
2023-02-09T10:37:21.178Z,19.33
2023-02-09T10:40:00.337Z,18.23
2023-02-09T10:42:34.019Z,16.40
2023-02-09T10:45:26.921Z,18.63
2023-02-09T10:48:15.254Z,21.57
2023-02-09T10:50:58.424Z,22.30
2023-02-09T10:53:32.328Z,19.60
2023-02-09T10:56:04.041Z,19.27
2023-02-09T10:58:35.988Z,18.13
2023-02-09T11:01:16.997Z,19.30
2023-02-09T11:04:17.551Z,18.20
2023-02-09T11:06:54.881Z,18.90
2023-02-09T11:09:34.962Z,22.07
2023-02-09T11:12:01.965Z,18.50
2023-02-09T11:14:29.210Z,20.50
2023-02-09T11:17:05.145Z,19.80
2023-02-09T11:19:49.248Z,17.93
2023-02-09T11:22:33.602Z,20.47
2023-02-09T11:25:22.289Z,21.60
2023-02-09T11:28:15.884Z,19.93
2023-02-09T11:31:13.618Z,23.73
2023-02-09T11:33:56.276Z,19.37
2023-02-09T11:36:29.234Z,19.53
2023-02-09T11:39:03.206Z,20.20
2023-02-09T11:41:56.326Z,19.77
2023-02-09T11:45:02.465Z,20.53
2023-02-09T11:47:51.833Z,20.80
2023-02-09T11:50:28.486Z,19.80
2023-02-09T11:52:59.702Z,22.47
2023-02-09T11:55:36.200Z,18.30
2023-02-09T11:58:29.062Z,21.60
2023-02-09T12:01:21.210Z,18.97
2023-02-09T12:04:05.273Z,19.83
2023-02-09T12:06:42.608Z,25.17
2023-02-09T12:09:18.882Z,21.77
2023-02-09T12:12:02.714Z,24.83
2023-02-09T12:14:43.087Z,23.23
2023-02-09T12:17:21.512Z,20.07
2023-02-09T12:19:56.924Z,20.67
2023-02-09T12:22:36.138Z,19.93
2023-02-09T12:25:12.024Z,22.93
2023-02-09T12:28:05.044Z,19.47
2023-02-09T12:30:41.234Z,20.07
2023-02-09T12:33:36.315Z,24.03
2023-02-09T12:36:16.103Z,20.90
2023-02-09T12:39:04.737Z,21.63
2023-02-09T12:41:32.034Z,19.57
2023-02-09T12:44:10.837Z,20.17
2023-02-09T12:46:55.759Z,20.40
2023-02-09T12:49:28.902Z,20.50
2023-02-09T12:52:01.964Z,22.43
2023-02-09T12:54:55.507Z,21.77
2023-02-09T12:57:22.378Z,24.03
2023-02-09T13:00:00.861Z,22.90
2023-02-09T13:02:33.492Z,20.17
2023-02-09T13:05:11.932Z,27.53
2023-02-09T13:07:43.094Z,20.47
2023-02-09T13:10:19.293Z,21.10
2023-02-09T13:12:52.845Z,22.00
2023-02-09T13:15:19.998Z,20.73
2023-02-09T13:18:22.933Z,19.67
2023-02-09T13:21:17.964Z,19.70
2023-02-09T13:24:00.726Z,23.37
2023-02-09T13:26:32.885Z,20.00
2023-02-09T13:29:21.439Z,23.53
2023-02-09T13:31:54.945Z,23.83
2023-02-09T13:34:44.818Z,23.40
2023-02-09T13:37:25.001Z,22.10
2023-02-09T13:40:00.860Z,25.40
2023-02-09T13:42:30.473Z,23.80
2023-02-09T13:44:59.496Z,23.03
2023-02-09T13:47:27.880Z,27.40
2023-02-09T13:50:14.228Z,21.10
2023-02-09T13:52:41.303Z,19.37
2023-02-09T13:55:26.147Z,20.63
2023-02-09T13:58:08.081Z,22.90
2023-02-09T14:00:45.542Z,20.53
2023-02-09T14:03:27.338Z,20.83
2023-02-09T14:06:20.424Z,23.03
2023-02-09T14:08:48.718Z,24.10
2023-02-09T14:11:41.514Z,23.07
2023-02-09T14:14:24.313Z,22.90
2023-02-09T14:17:25.338Z,21.27
2023-02-09T14:19:53.451Z,22.47
2023-02-09T14:22:35.502Z,21.90
2023-02-09T14:25:14.375Z,21.27
2023-02-09T14:27:45.775Z,24.87
2023-02-09T14:30:20.464Z,22.53
2023-02-09T14:32:52.972Z,22.03
2023-02-09T14:35:34.963Z,21.10
2023-02-09T14:38:02.884Z,22.17
2023-02-09T14:40:34.194Z,19.87
2023-02-09T14:43:24.946Z,22.00
2023-02-09T14:46:00.327Z,22.63
2023-02-09T14:48:31.442Z,22.57
2023-02-09T14:51:14.606Z,18.03
2023-02-09T14:53:43.764Z,19.40
2023-02-09T14:56:43.098Z,18.90
2023-02-09T14:59:17.016Z,16.27
2023-02-09T15:01:46.010Z,18.83
2023-02-09T15:04:12.924Z,18.43
2023-02-09T15:06:42.845Z,20.97
2023-02-09T15:09:17.816Z,19.00
2023-02-09T15:12:03.401Z,20.20
2023-02-09T15:14:33.375Z,20.47
2023-02-09T15:17:01.333Z,14.40
2023-02-09T15:19:28.669Z,19.93
2023-02-09T15:22:06.464Z,17.80
2023-02-09T15:24:35.666Z,17.33
2023-02-09T15:27:02.910Z,17.43
2023-02-09T15:29:30.777Z,16.03
2023-02-09T15:31:57.767Z,17.73
2023-02-09T15:34:24.597Z,18.60
2023-02-09T15:36:51.553Z,18.13
2023-02-09T15:39:23.671Z,17.13
2023-02-09T15:42:19.842Z,17.70
2023-02-09T15:45:07.698Z,16.27
2023-02-09T15:47:49.801Z,15.87
2023-02-09T15:50:16.901Z,16.93
2023-02-09T15:52:43.812Z,16.90
2023-02-09T15:55:18.500Z,13.33
2023-02-09T15:57:45.504Z,18.20
2023-02-09T16:00:21.330Z,21.70
2023-02-09T16:02:49.593Z,17.83
2023-02-09T16:05:16.675Z,16.37
2023-02-09T16:07:43.772Z,17.90
2023-02-09T16:10:15.456Z,14.77
2023-02-09T16:12:42.371Z,16.57
2023-02-09T16:15:17.651Z,17.70
2023-02-09T16:17:44.706Z,20.63
2023-02-09T16:20:13.370Z,17.80
2023-02-09T16:22:42.580Z,16.70
2023-02-09T16:25:21.681Z,15.73
2023-02-09T16:27:49.970Z,18.27
2023-02-09T16:30:23.298Z,15.17
2023-02-09T16:32:51.005Z,20.47
2023-02-09T16:35:19.143Z,17.23
2023-02-09T16:37:47.999Z,17.50
2023-02-09T16:40:20.711Z,22.23
2023-02-09T16:42:48.653Z,21.07
2023-02-09T16:45:17.376Z,17.97
2023-02-09T16:47:49.865Z,33.73
2023-02-09T16:50:33.055Z,27.43
2023-02-09T16:53:04.454Z,25.63
2023-02-09T16:55:34.144Z,26.33
2023-02-09T16:58:03.727Z,23.87
2023-02-09T17:00:35.689Z,21.40
2023-02-09T17:03:15.059Z,19.80
2023-02-09T17:05:45.902Z,16.67
2023-02-09T17:08:25.225Z,16.37
2023-02-09T17:10:54.368Z,16.10
2023-02-09T17:13:22.331Z,17.70
2023-02-09T17:15:53.306Z,16.30
2023-02-09T17:18:31.332Z,16.90
2023-02-09T17:21:22.921Z,14.87
2023-02-09T17:23:50.533Z,17.27
2023-02-09T17:26:17.410Z,15.67
2023-02-09T17:28:44.429Z,19.97
2023-02-09T17:31:43.737Z,18.37
2023-02-09T17:34:17.904Z,19.57
2023-02-09T17:36:45.105Z,20.83
2023-02-09T17:39:12.439Z,18.83
2023-02-09T17:41:44.809Z,19.50
2023-02-09T17:44:39.604Z,17.87
2023-02-09T17:47:19.826Z,17.60
2023-02-09T17:49:47.134Z,19.53
2023-02-09T17:52:18.792Z,20.83
2023-02-09T17:54:46.027Z,16.40
2023-02-09T17:57:17.361Z,17.93
2023-02-09T17:59:46.077Z,19.87
2023-02-09T18:02:19.715Z,16.43
2023-02-09T18:04:46.732Z,14.63
2023-02-09T18:07:20.097Z,14.23
2023-02-09T18:09:47.070Z,17.67
2023-02-09T18:12:20.494Z,12.80
2023-02-09T18:14:47.474Z,15.07
2023-02-09T18:17:14.747Z,14.47
2023-02-09T18:19:41.608Z,18.20
2023-02-09T18:22:13.873Z,14.83
2023-02-09T18:24:41.848Z,13.87
2023-02-09T18:27:13.517Z,14.40
2023-02-09T18:29:40.375Z,18.07
2023-02-09T18:32:07.414Z,21.20
2023-02-09T18:34:35.986Z,19.57
2023-02-09T18:37:02.943Z,20.93
2023-02-09T18:39:30.757Z,21.03
2023-02-09T18:41:57.623Z,17.50
2023-02-09T18:44:29.196Z,17.67
2023-02-09T18:46:57.763Z,17.10
2023-02-09T18:49:24.656Z,16.50
2023-02-09T18:51:52.286Z,20.77
2023-02-09T18:54:19.336Z,17.80
2023-02-09T18:56:46.284Z,19.80
2023-02-09T18:59:13.275Z,19.07
2023-02-09T19:01:40.992Z,22.37
2023-02-09T19:04:08.072Z,20.77
2023-02-09T19:06:35.547Z,20.53
2023-02-09T19:09:02.447Z,24.00
2023-02-09T19:11:29.297Z,21.47
2023-02-09T19:14:14.982Z,20.63
2023-02-09T19:16:41.875Z,20.90
2023-02-09T19:19:13.439Z,22.10
2023-02-09T19:21:40.343Z,21.07
2023-02-09T19:24:07.262Z,21.10
2023-02-09T19:26:34.290Z,21.63
2023-02-09T19:29:01.192Z,19.40
2023-02-09T19:31:28.110Z,20.57
2023-02-09T19:33:56.645Z,22.07
2023-02-09T19:36:25.196Z,25.73
2023-02-09T19:38:52.074Z,21.57
2023-02-09T19:41:20.534Z,27.93
2023-02-09T19:43:47.390Z,22.30
2023-02-09T19:46:14.539Z,21.73
2023-02-09T19:48:41.689Z,22.00
2023-02-09T19:51:08.988Z,23.30
2023-02-09T19:53:36.095Z,23.77
2023-02-09T19:56:02.958Z,21.97
2023-02-09T19:58:30.117Z,23.03
2023-02-09T20:00:57.158Z,21.47
2023-02-09T20:03:24.500Z,26.50
2023-02-09T20:05:51.501Z,21.63
2023-02-09T20:08:20.059Z,22.97
2023-02-09T20:10:47.776Z,23.17
2023-02-09T20:13:15.804Z,22.20
2023-02-09T20:15:43.861Z,23.00
2023-02-09T20:18:12.172Z,23.13
2023-02-09T20:20:41.419Z,24.47
2023-02-09T20:23:09.027Z,23.83
2023-02-09T20:25:36.062Z,21.17
2023-02-09T20:28:03.123Z,21.47
2023-02-09T20:30:30.119Z,26.53
2023-02-09T20:32:56.986Z,22.57
2023-02-09T20:35:23.836Z,23.73
2023-02-09T20:37:52.872Z,26.47
2023-02-09T20:40:20.004Z,23.90
2023-02-09T20:43:05.691Z,28.47
2023-02-09T20:45:51.058Z,26.77
2023-02-09T20:48:18.265Z,27.30
2023-02-09T20:50:45.646Z,22.97
2023-02-09T20:53:13.140Z,26.63
2023-02-09T20:55:40.004Z,26.43
2023-02-09T20:58:06.928Z,27.23
2023-02-09T21:00:33.848Z,24.63
2023-02-09T21:03:01.128Z,29.87
2023-02-09T21:05:27.987Z,33.63
2023-02-09T21:07:55.458Z,34.97
2023-02-09T21:10:23.089Z,34.83
2023-02-09T21:12:49.959Z,30.60
2023-02-09T21:15:16.883Z,29.90
2023-02-09T21:17:47.997Z,28.47
2023-02-09T21:20:18.035Z,30.13
2023-02-09T21:22:44.989Z,29.67
2023-02-09T21:25:11.849Z,29.90
2023-02-09T21:27:39.094Z,30.03
2023-02-09T21:30:06.621Z,29.53
2023-02-09T21:32:35.009Z,28.07
2023-02-09T21:35:01.990Z,26.37
2023-02-09T21:37:32.393Z,30.87
2023-02-09T21:40:02.976Z,24.40
2023-02-09T21:42:31.274Z,27.63
2023-02-09T21:44:59.582Z,26.87
2023-02-09T21:47:35.495Z,27.80
2023-02-09T21:50:02.345Z,28.47
2023-02-09T21:52:30.068Z,30.87
2023-02-09T21:54:57.051Z,26.87
2023-02-09T21:57:23.994Z,28.83
2023-02-09T21:59:50.848Z,24.50
2023-02-09T22:02:18.609Z,27.60
2023-02-09T22:04:46.854Z,25.93
2023-02-09T22:07:14.664Z,25.23
2023-02-09T22:09:41.635Z,24.53
2023-02-09T22:12:09.130Z,24.87
2023-02-09T22:14:36.083Z,23.20
2023-02-09T22:17:03.109Z,25.57
2023-02-09T22:19:30.071Z,24.50
2023-02-09T22:21:58.102Z,26.33
2023-02-09T22:24:25.364Z,25.53
2023-02-09T22:26:52.441Z,23.60
2023-02-09T22:29:19.603Z,25.00
2023-02-09T22:31:46.561Z,24.87
2023-02-09T22:34:13.453Z,28.93
2023-02-09T22:36:40.521Z,27.70
2023-02-09T22:39:08.023Z,24.53
2023-02-09T22:41:35.731Z,28.20
2023-02-09T22:44:05.908Z,27.23
2023-02-09T22:46:39.084Z,25.03
2023-02-09T22:49:13.767Z,26.20
2023-02-09T22:51:40.814Z,24.63
2023-02-09T22:54:07.691Z,26.77
2023-02-09T22:56:34.876Z,24.63
2023-02-09T22:59:01.927Z,26.27
2023-02-09T23:01:29.714Z,30.40
2023-02-09T23:03:57.407Z,25.07
2023-02-09T23:06:27.376Z,24.93
2023-02-09T23:09:00.018Z,27.20
2023-02-09T23:11:27.878Z,22.53
2023-02-09T23:14:08.470Z,26.57
2023-02-09T23:16:37.152Z,27.87
2023-02-09T23:19:06.663Z,25.50
2023-02-09T23:21:37.833Z,24.90
2023-02-09T23:24:05.416Z,29.50
2023-02-09T23:26:32.592Z,27.37
2023-02-09T23:29:02.020Z,29.00
2023-02-09T23:31:29.303Z,26.87
2023-02-09T23:33:56.591Z,24.83
2023-02-09T23:36:26.552Z,27.80
2023-02-09T23:38:55.813Z,24.80
2023-02-09T23:41:23.701Z,27.17
2023-02-09T23:43:51.490Z,27.33
2023-02-09T23:46:22.229Z,29.10
2023-02-09T23:48:50.049Z,29.07
2023-02-09T23:51:24.310Z,31.67
2023-02-09T23:53:51.168Z,30.03
2023-02-09T23:56:19.093Z,29.37
2023-02-09T23:58:47.875Z,28.67
